Time;durP1;ratioP1;P1;durP2;ratioP2;P2;SDS_P1;SDS_P2;PMS_P1;PMS_P2;Temp;Humidity;BMP_temperature;BMP_pressure;BME280_temperature;BME280_humidity;BME280_pressure;Samples;Min_cycle;Max_cycle;Signal;HPM_P1;HPM_P2
2021/06/16 00:00:13;;;;;;;6.55;2.25;;;16.90;99.90;;;;;;5091328;28;20040;-62
2021/06/16 00:02:40;;;;;;;5.88;1.85;;;16.90;99.90;;;;;;5090627;28;20081;-62
2021/06/16 00:05:08;;;;;;;6.57;1.50;;;17.00;99.90;;;;;;5091661;28;20449;-63
2021/06/16 00:07:34;;;;;;;5.93;2.15;;;16.90;99.90;;;;;;5082146;28;20037;-62
2021/06/16 00:10:00;;;;;;;7.85;2.00;;;16.90;99.90;;;;;;5090385;28;20027;-62
2021/06/16 00:12:26;;;;;;;10.23;1.88;;;16.80;99.90;;;;;;5090781;28;20470;-62
2021/06/16 00:14:53;;;;;;;10.40;2.47;;;16.90;99.90;;;;;;5091046;28;20526;-61
2021/06/16 00:17:18;;;;;;;7.55;2.00;;;16.90;99.90;;;;;;5089318;28;20035;-63
2021/06/16 00:19:44;;;;;;;6.45;1.83;;;16.70;99.90;;;;;;5086759;28;20406;-63
2021/06/16 00:22:11;;;;;;;5.28;1.70;;;16.80;99.90;;;;;;5089265;28;20036;-61
2021/06/16 00:24:37;;;;;;;8.05;2.30;;;16.80;99.90;;;;;;5082097;28;20134;-61
2021/06/16 00:27:03;;;;;;;8.60;1.92;;;16.70;99.90;;;;;;5076223;28;20020;-62
2021/06/16 00:29:29;;;;;;;9.18;1.90;;;16.70;99.90;;;;;;5091349;28;20052;-63
2021/06/16 00:31:55;;;;;;;9.18;2.17;;;16.70;99.90;;;;;;5090260;28;20031;-63
2021/06/16 00:34:21;;;;;;;5.68;1.60;;;16.70;99.90;;;;;;5073635;28;20035;-63
2021/06/16 00:36:46;;;;;;;5.72;2.00;;;16.70;99.90;;;;;;5077592;28;20055;-62
2021/06/16 00:39:12;;;;;;;8.13;2.15;;;16.70;99.90;;;;;;5082743;28;20052;-62
2021/06/16 00:41:38;;;;;;;6.53;1.73;;;16.60;99.90;;;;;;5070191;28;20028;-62
2021/06/16 00:44:04;;;;;;;9.20;2.17;;;16.60;99.90;;;;;;5084457;28;20036;-62
2021/06/16 00:46:31;;;;;;;5.25;1.83;;;16.70;99.90;;;;;;5082603;28;20447;-62
2021/06/16 00:48:57;;;;;;;9.65;1.90;;;16.70;99.90;;;;;;5084538;28;20101;-62
2021/06/16 00:51:23;;;;;;;7.53;2.25;;;16.70;99.90;;;;;;5090757;28;20068;-62
2021/06/16 00:53:48;;;;;;;8.95;1.83;;;16.70;99.90;;;;;;5090561;28;20028;-62
2021/06/16 00:56:15;;;;;;;8.07;2.47;;;16.70;99.90;;;;;;5090250;28;20063;-62
2021/06/16 00:58:41;;;;;;;7.68;2.30;;;16.70;99.90;;;;;;5095017;28;20028;-62
2021/06/16 01:01:26;;;;;;;5.65;1.98;;;16.80;99.90;;;;;;5094002;28;20039;-62
2021/06/16 01:04:05;;;;;;;5.20;1.85;;;16.70;99.90;;;;;;5084123;28;20115;-62
2021/06/16 01:06:44;;;;;;;9.10;1.90;;;16.80;99.90;;;;;;5078972;28;20066;-62
2021/06/16 01:09:43;;;;;;;6.97;1.90;;;16.80;99.90;;;;;;5074541;28;20433;-61
2021/06/16 01:12:32;;;;;;;5.20;1.75;;;16.90;99.90;;;;;;5090237;28;20475;-62
2021/06/16 01:15:10;;;;;;;7.65;2.20;;;16.80;99.90;;;;;;5091164;28;20103;-62
2021/06/16 01:17:58;;;;;;;10.93;2.08;;;16.80;99.90;;;;;;5085437;28;20099;-62
2021/06/16 01:20:38;;;;;;;7.07;2.30;;;16.80;99.90;;;;;;5070209;28;20027;-62
2021/06/16 01:23:07;;;;;;;8.70;2.17;;;16.70;99.90;;;;;;5081569;28;20033;-62
2021/06/16 01:25:58;;;;;;;7.47;2.38;;;16.80;99.90;;;;;;5080872;28;20055;-62
2021/06/16 01:28:27;;;;;;;6.68;1.75;;;16.70;99.90;;;;;;5085703;28;20084;-62
2021/06/16 01:30:55;;;;;;;7.72;1.83;;;16.70;99.90;;;;;;5093550;28;20031;-63
2021/06/16 01:33:21;;;;;;;9.52;2.33;;;16.60;99.90;;;;;;5078836;28;20066;-60
2021/06/16 01:35:51;;;;;;;8.82;1.90;;;16.60;99.90;;;;;;5085194;28;20033;-62
2021/06/16 01:38:19;;;;;;;8.52;2.13;;;16.60;99.90;;;;;;5089394;28;20089;-61
2021/06/16 01:40:48;;;;;;;8.50;2.03;;;16.60;99.90;;;;;;5092947;28;20055;-61
2021/06/16 01:43:16;;;;;;;7.30;1.80;;;16.60;99.90;;;;;;5091550;28;20505;-61
2021/06/16 01:45:45;;;;;;;7.75;2.10;;;16.60;99.90;;;;;;5078703;28;20435;-61
2021/06/16 01:48:15;;;;;;;7.47;1.85;;;16.50;99.90;;;;;;5081387;28;20470;-61
2021/06/16 01:50:42;;;;;;;27.90;3.72;;;16.40;99.90;;;;;;5093042;28;20028;-61
2021/06/16 01:53:09;;;;;;;9.23;2.22;;;16.40;99.90;;;;;;5080141;28;20028;-61
2021/06/16 01:55:36;;;;;;;7.38;2.13;;;16.30;99.90;;;;;;5087094;28;20024;-62
2021/06/16 01:58:02;;;;;;;5.88;1.98;;;16.20;99.90;;;;;;5083387;28;20415;-61
2021/06/16 02:00:30;;;;;;;11.00;2.03;;;16.10;99.90;;;;;;5075700;28;20029;-61
2021/06/16 02:02:56;;;;;;;11.43;2.20;;;16.00;99.90;;;;;;5077493;28;20473;-61
2021/06/16 02:05:25;;;;;;;6.63;2.00;;;15.90;99.90;;;;;;5073205;28;20036;-61
2021/06/16 02:08:05;;;;;;;9.50;2.22;;;15.90;99.90;;;;;;5086417;28;20040;-61
2021/06/16 02:10:36;;;;;;;7.43;2.10;;;15.80;99.90;;;;;;5089355;28;20020;-62
2021/06/16 02:13:06;;;;;;;6.50;2.10;;;15.80;99.90;;;;;;5084862;28;20035;-60
2021/06/16 02:15:53;;;;;;;8.77;2.22;;;15.80;99.90;;;;;;5082445;28;20024;-61
2021/06/16 02:18:25;;;;;;;5.93;1.98;;;15.80;99.90;;;;;;5089734;28;20039;-61
2021/06/16 02:20:51;;;;;;;7.68;2.42;;;15.80;99.90;;;;;;5090930;28;20102;-62
2021/06/16 02:23:17;;;;;;;9.82;2.58;;;15.70;99.90;;;;;;5086724;28;20169;-61
2021/06/16 02:25:43;;;;;;;6.80;1.83;;;15.70;99.90;;;;;;5082398;28;20070;-61
2021/06/16 02:28:09;;;;;;;8.45;2.03;;;15.70;99.90;;;;;;5092325;28;20020;-62
2021/06/16 02:30:35;;;;;;;9.50;1.98;;;15.70;99.90;;;;;;5080281;28;20079;-61
2021/06/16 02:33:00;;;;;;;8.60;2.28;;;15.80;99.90;;;;;;5075646;28;20032;-61
2021/06/16 02:35:26;;;;;;;6.95;1.98;;;15.80;99.90;;;;;;5091489;28;20028;-62
2021/06/16 02:38:06;;;;;;;6.40;2.00;;;15.80;99.90;;;;;;5092428;28;20503;-62
2021/06/16 02:40:33;;;;;;;7.82;2.50;;;15.80;99.90;;;;;;5087536;28;20052;-61
2021/06/16 02:43:00;;;;;;;7.82;2.15;;;15.80;99.90;;;;;;5082937;28;20028;-60
2021/06/16 02:45:27;;;;;;;5.70;2.30;;;15.80;99.90;;;;;;5091737;28;20028;-61
2021/06/16 02:47:54;;;;;;;6.47;1.70;;;15.70;99.90;;;;;;5092190;28;20060;-61
2021/06/16 02:50:25;;;;;;;9.30;2.28;;;15.70;99.90;;;;;;5084973;28;20033;-61
2021/06/16 02:52:52;;;;;;;7.72;2.17;;;15.70;99.90;;;;;;5078960;28;20020;-61
2021/06/16 02:55:18;;;;;;;7.13;2.15;;;15.60;99.90;;;;;;5085390;28;20076;-62
2021/06/16 02:57:45;;;;;;;10.65;2.25;;;15.60;99.90;;;;;;5084020;28;20029;-61
2021/06/16 03:00:13;;;;;;;10.57;2.50;;;15.60;99.90;;;;;;5081369;28;20020;-61
2021/06/16 03:02:44;;;;;;;6.53;1.95;;;15.60;99.90;;;;;;5079721;28;20036;-61
2021/06/16 03:05:12;;;;;;;6.38;1.98;;;15.50;99.90;;;;;;5092519;28;20043;-61
2021/06/16 03:07:39;;;;;;;5.18;1.90;;;15.50;99.90;;;;;;5084033;28;20550;-62
2021/06/16 03:10:05;;;;;;;9.38;2.50;;;15.50;99.90;;;;;;5081606;28;20024;-61
2021/06/16 03:12:33;;;;;;;6.03;2.15;;;15.50;99.90;;;;;;5082189;28;20024;-62
2021/06/16 03:14:59;;;;;;;7.20;2.30;;;15.50;99.90;;;;;;5081827;28;20526;-63
2021/06/16 03:17:26;;;;;;;5.93;2.20;;;15.60;99.90;;;;;;5087611;28;20328;-62
2021/06/16 03:19:52;;;;;;;10.23;2.40;;;15.50;99.90;;;;;;5076568;28;20036;-62
2021/06/16 03:22:19;;;;;;;4.28;2.05;;;15.50;99.90;;;;;;5082651;28;20078;-61
2021/06/16 03:24:48;;;;;;;11.77;2.63;;;15.60;99.90;;;;;;5072993;28;20040;-62
2021/06/16 03:27:14;;;;;;;7.65;1.90;;;15.50;99.90;;;;;;5071993;28;20027;-62
2021/06/16 03:29:40;;;;;;;6.50;2.22;;;15.50;99.90;;;;;;5091795;28;20056;-62
2021/06/16 03:32:08;;;;;;;9.55;2.17;;;15.50;99.90;;;;;;5084979;28;20028;-61
2021/06/16 03:34:35;;;;;;;14.77;3.58;;;15.50;99.90;;;;;;5071974;28;20041;-63
2021/06/16 03:37:04;;;;;;;7.85;1.90;;;15.60;99.90;;;;;;5075321;28;20034;-62
2021/06/16 03:39:31;;;;;;;12.55;2.60;;;15.60;99.90;;;;;;5080585;28;20043;-63
2021/06/16 03:41:57;;;;;;;11.55;2.55;;;15.60;99.90;;;;;;5087818;28;20361;-62
2021/06/16 03:44:24;;;;;;;7.05;2.63;;;15.60;99.90;;;;;;5083779;28;20470;-62
2021/06/16 03:46:51;;;;;;;5.65;2.13;;;15.50;99.90;;;;;;5073046;28;20024;-62
2021/06/16 03:49:18;;;;;;;8.32;2.00;;;15.50;99.90;;;;;;5090666;28;20393;-62
2021/06/16 03:51:45;;;;;;;7.65;2.47;;;15.50;99.90;;;;;;5086141;28;20059;-63
2021/06/16 03:54:12;;;;;;;6.10;1.80;;;15.60;99.90;;;;;;5083172;28;20116;-62
2021/06/16 03:56:39;;;;;;;7.65;2.20;;;15.60;99.90;;;;;;5073636;28;20096;-62
2021/06/16 03:59:06;;;;;;;10.88;2.92;;;15.60;99.90;;;;;;5084933;28;20021;-62
2021/06/16 04:01:32;;;;;;;12.73;2.22;;;15.60;99.90;;;;;;5086660;28;20036;-61
2021/06/16 04:03:58;;;;;;;6.65;2.22;;;15.60;99.90;;;;;;5076302;28;20081;-62
2021/06/16 04:06:24;;;;;;;7.57;2.13;;;15.60;99.90;;;;;;5082957;28;20054;-62
2021/06/16 04:08:50;;;;;;;6.65;2.17;;;15.60;99.90;;;;;;5090865;28;20478;-62
2021/06/16 04:11:16;;;;;;;6.25;1.88;;;15.60;99.90;;;;;;5090087;28;20040;-60
2021/06/16 04:13:43;;;;;;;13.45;2.88;;;15.60;99.90;;;;;;5090769;28;20104;-61
2021/06/16 04:16:09;;;;;;;12.40;2.38;;;15.60;99.90;;;;;;5091564;28;20533;-61
2021/06/16 04:18:39;;;;;;;11.52;2.30;;;15.60;99.90;;;;;;5083143;28;20385;-61
2021/06/16 04:21:05;;;;;;;11.73;2.42;;;15.70;99.90;;;;;;5091334;28;20114;-62
2021/06/16 04:23:31;;;;;;;13.13;2.47;;;15.70;99.90;;;;;;5082410;28;20051;-62
2021/06/16 04:25:56;;;;;;;6.22;2.40;;;15.70;99.90;;;;;;5086927;28;20036;-61
2021/06/16 04:28:22;;;;;;;9.50;2.38;;;15.70;99.90;;;;;;5087894;28;20036;-62
2021/06/16 04:30:48;;;;;;;7.78;2.15;;;15.70;99.90;;;;;;5091442;28;20031;-62
2021/06/16 04:33:13;;;;;;;7.05;2.35;;;15.70;99.90;;;;;;5080675;28;20031;-61
2021/06/16 04:35:39;;;;;;;8.07;2.47;;;15.60;99.90;;;;;;5091089;28;20024;-61
2021/06/16 04:38:06;;;;;;;8.88;2.78;;;15.60;99.90;;;;;;5089483;28;20031;-61
2021/06/16 04:40:32;;;;;;;26.98;3.63;;;15.70;99.90;;;;;;5057069;28;20036;-61
2021/06/16 04:42:58;;;;;;;6.97;2.17;;;15.80;99.90;;;;;;5082166;28;20028;-61
2021/06/16 04:45:24;;;;;;;8.43;2.33;;;15.70;99.90;;;;;;5075686;28;20384;-62
2021/06/16 04:47:50;;;;;;;8.60;2.35;;;15.70;99.90;;;;;;5079713;28;20548;-61
2021/06/16 04:50:16;;;;;;;12.23;2.75;;;15.60;99.90;;;;;;5090973;28;20433;-61
2021/06/16 04:52:43;;;;;;;9.38;2.55;;;15.70;99.90;;;;;;5089914;28;20062;-61
2021/06/16 04:55:11;;;;;;;6.43;2.30;;;15.80;99.90;;;;;;5086788;28;20032;-62
2021/06/16 04:57:37;;;;;;;8.40;2.25;;;15.80;99.90;;;;;;5074134;28;20478;-62
2021/06/16 05:00:09;;;;;;;6.30;2.00;;;15.80;99.90;;;;;;5078086;28;20036;-62
2021/06/16 05:02:35;;;;;;;8.68;2.20;;;15.90;99.90;;;;;;5085286;28;20119;-62
2021/06/16 05:05:01;;;;;;;15.07;3.70;;;15.80;99.90;;;;;;5090199;28;20065;-61
2021/06/16 05:07:27;;;;;;;11.98;2.97;;;15.90;99.90;;;;;;5088548;28;20032;-62
2021/06/16 05:09:52;;;;;;;7.97;2.50;;;16.00;99.90;;;;;;5083803;28;20040;-62
2021/06/16 05:12:18;;;;;;;10.57;2.90;;;16.00;99.90;;;;;;5083527;28;20028;-62
2021/06/16 05:14:44;;;;;;;11.52;2.75;;;16.10;99.90;;;;;;5090357;28;20385;-61
2021/06/16 05:17:10;;;;;;;9.68;2.85;;;16.20;99.90;;;;;;5081653;28;20030;-62
2021/06/16 05:19:36;;;;;;;10.40;3.75;;;16.20;99.90;;;;;;5088888;28;20139;-62
2021/06/16 05:22:10;;;;;;;6.47;2.50;;;16.20;99.90;;;;;;5073752;28;20115;-61
2021/06/16 05:24:36;;;;;;;8.48;2.50;;;16.20;99.90;;;;;;5073867;28;20039;-62
2021/06/16 05:27:02;;;;;;;8.73;2.67;;;16.30;99.90;;;;;;5079542;28;20081;-62
2021/06/16 05:29:28;;;;;;;7.35;2.30;;;16.30;99.90;;;;;;5072665;28;20057;-61
2021/06/16 05:31:53;;;;;;;14.05;3.10;;;16.30;99.90;;;;;;5080756;28;20099;-61
2021/06/16 05:34:19;;;;;;;9.25;2.80;;;16.40;99.90;;;;;;5087492;28;20035;-62
2021/06/16 05:36:45;;;;;;;11.98;2.55;;;16.40;99.90;;;;;;5090414;28;20024;-62
2021/06/16 05:39:11;;;;;;;11.75;3.03;;;16.40;99.90;;;;;;5088109;28;20016;-61
2021/06/16 05:41:36;;;;;;;8.68;3.00;;;16.50;99.90;;;;;;5088505;28;20036;-62
2021/06/16 05:44:03;;;;;;;7.38;3.00;;;16.50;99.90;;;;;;5088611;28;20032;-62
2021/06/16 05:46:29;;;;;;;12.88;3.67;;;16.60;99.90;;;;;;5085131;28;20099;-61
2021/06/16 05:48:54;;;;;;;12.32;2.92;;;16.60;99.90;;;;;;5073866;28;20054;-61
2021/06/16 05:51:20;;;;;;;11.43;3.08;;;16.70;99.90;;;;;;5084679;28;20032;-61
2021/06/16 05:53:46;;;;;;;8.80;2.38;;;16.70;99.90;;;;;;5090577;28;20095;-61
2021/06/16 05:56:12;;;;;;;11.93;2.50;;;16.80;99.90;;;;;;5083228;28;20066;-61
2021/06/16 05:58:37;;;;;;;15.77;3.40;;;16.80;99.90;;;;;;5085932;28;20502;-61
2021/06/16 06:01:03;;;;;;;11.60;3.30;;;16.90;99.90;;;;;;5086224;28;20024;-60
2021/06/16 06:03:29;;;;;;;12.70;3.10;;;17.00;99.90;;;;;;5090383;28;20043;-61
2021/06/16 06:05:55;;;;;;;16.30;5.78;;;17.00;99.90;;;;;;5086722;28;20394;-61
2021/06/16 06:08:20;;;;;;;20.42;3.97;;;17.10;99.90;;;;;;5084205;28;20036;-61
2021/06/16 06:10:46;;;;;;;11.05;3.58;;;17.20;99.90;;;;;;5089219;28;20046;-61
2021/06/16 06:13:12;;;;;;;14.73;3.55;;;17.30;99.90;;;;;;5077210;28;20052;-60
2021/06/16 06:15:38;;;;;;;17.13;3.55;;;17.40;99.90;;;;;;5079663;28;20024;-62
2021/06/16 06:18:04;;;;;;;11.48;3.55;;;17.50;99.90;;;;;;5090631;28;20032;-61
2021/06/16 06:20:29;;;;;;;20.60;4.25;;;17.60;99.90;;;;;;5090719;28;20078;-62
2021/06/16 06:22:56;;;;;;;13.73;3.63;;;17.80;99.90;;;;;;5083020;28;20133;-62
2021/06/16 06:25:23;;;;;;;16.13;3.20;;;17.90;99.90;;;;;;5080247;28;20032;-61
2021/06/16 06:27:48;;;;;;;28.75;4.07;;;18.00;99.90;;;;;;5077405;28;20478;-62
2021/06/16 06:30:14;;;;;;;14.48;3.40;;;18.10;99.90;;;;;;5082692;28;20043;-62
2021/06/16 06:32:40;;;;;;;15.95;3.90;;;18.30;99.90;;;;;;5083832;28;20436;-62
2021/06/16 06:35:07;;;;;;;14.63;3.58;;;18.40;99.90;;;;;;5078822;28;20385;-62
2021/06/16 06:37:33;;;;;;;15.85;3.22;;;18.50;99.90;;;;;;5079623;28;20028;-63
2021/06/16 06:39:58;;;;;;;18.85;3.90;;;18.90;99.90;;;;;;5074105;28;20484;-61
2021/06/16 06:42:24;;;;;;;16.80;3.67;;;19.30;99.90;;;;;;5088191;28;20029;-63
2021/06/16 06:44:50;;;;;;;16.90;3.38;;;19.70;99.90;;;;;;5071876;28;20105;-61
2021/06/16 06:47:15;;;;;;;14.00;4.32;;;20.00;99.90;;;;;;5072574;28;20033;-63
2021/06/16 06:49:41;;;;;;;14.07;3.95;;;20.40;99.90;;;;;;5071705;28;20108;-62
2021/06/16 06:52:07;;;;;;;16.33;4.18;;;20.80;99.90;;;;;;5072498;28;20036;-61
2021/06/16 06:54:35;;;;;;;16.55;4.65;;;20.90;99.90;;;;;;5071668;28;20436;-63
2021/06/16 06:57:02;;;;;;;23.27;5.57;;;21.20;99.90;;;;;;5072313;28;20031;-62
2021/06/16 06:59:27;;;;;;;24.27;6.13;;;21.40;99.90;;;;;;5081457;28;20027;-62
2021/06/16 07:01:54;;;;;;;15.57;4.78;;;21.50;99.90;;;;;;5075424;28;20082;-62
2021/06/16 07:04:21;;;;;;;36.00;11.25;;;21.60;99.90;;;;;;5071231;28;20047;-61
2021/06/16 07:06:47;;;;;;;20.52;5.57;;;22.00;99.90;;;;;;5069488;28;20067;-62
2021/06/16 07:09:12;;;;;;;50.70;6.70;;;21.90;99.90;;;;;;5067577;28;20024;-62
2021/06/16 07:11:38;;;;;;;20.00;5.65;;;22.20;99.90;;;;;;5075660;28;20036;-62
2021/06/16 07:14:04;;;;;;;21.58;6.13;;;22.20;99.90;;;;;;5071328;28;20500;-61
2021/06/16 07:16:29;;;;;;;14.77;5.22;;;22.30;99.90;;;;;;5072234;28;20028;-63
2021/06/16 07:18:55;;;;;;;19.33;5.28;;;22.40;99.90;;;;;;5080683;28;20594;-63
2021/06/16 07:21:21;;;;;;;13.80;5.45;;;22.40;99.90;;;;;;5075702;28;20117;-63
2021/06/16 07:23:46;;;;;;;17.25;5.65;;;22.70;99.90;;;;;;5071273;28;20036;-62
2021/06/16 07:26:12;;;;;;;24.38;5.47;;;22.80;99.90;;;;;;5085768;28;20056;-60
2021/06/16 07:28:38;;;;;;;15.68;5.80;;;22.90;99.90;;;;;;5089248;28;20035;-62
2021/06/16 07:31:04;;;;;;;22.23;6.00;;;23.00;99.90;;;;;;5074692;28;20024;-63
2021/06/16 07:33:31;;;;;;;19.67;5.40;;;23.30;99.90;;;;;;5082527;28;20399;-63
2021/06/16 07:35:57;;;;;;;19.90;5.60;;;23.40;99.90;;;;;;5091554;28;20112;-63
2021/06/16 07:38:23;;;;;;;22.98;4.88;;;23.50;99.90;;;;;;5088124;28;20463;-62
2021/06/16 07:40:49;;;;;;;13.75;4.65;;;23.70;99.90;;;;;;5091835;28;20039;-62
2021/06/16 07:43:15;;;;;;;14.38;5.38;;;23.60;99.90;;;;;;5079242;28;20032;-62
2021/06/16 07:45:41;;;;;;;15.40;5.65;;;23.60;99.90;;;;;;5081383;28;20028;-63
2021/06/16 07:48:07;;;;;;;17.40;5.50;;;23.80;99.90;;;;;;5087294;28;20027;-63
2021/06/16 07:50:36;;;;;;;16.83;6.18;;;23.70;99.90;;;;;;5082127;28;20096;-63
2021/06/16 07:53:04;;;;;;;19.02;5.70;;;23.80;99.90;;;;;;5090842;28;20028;-62
2021/06/16 07:55:30;;;;;;;18.98;7.30;;;23.80;99.90;;;;;;5088047;28;20030;-63
2021/06/16 07:57:56;;;;;;;20.73;6.82;;;24.20;99.90;;;;;;5084346;28;20033;-63
2021/06/16 08:00:22;;;;;;;16.10;6.00;;;24.40;99.90;;;;;;5076225;28;20060;-62
2021/06/16 08:02:47;;;;;;;21.58;7.32;;;24.60;99.90;;;;;;5086916;28;20031;-61
2021/06/16 08:05:14;;;;;;;20.88;6.93;;;24.60;99.90;;;;;;5083996;28;20032;-62
2021/06/16 08:07:40;;;;;;;26.50;7.70;;;24.60;99.90;;;;;;5076863;28;20023;-61
2021/06/16 08:10:06;;;;;;;15.35;6.60;;;24.80;99.90;;;;;;5080568;28;20028;-62
2021/06/16 08:12:32;;;;;;;21.88;6.68;;;25.10;99.90;;;;;;5079006;28;20111;-63
2021/06/16 08:14:58;;;;;;;13.65;5.63;;;25.10;99.90;;;;;;5078646;28;20553;-63
2021/06/16 08:17:23;;;;;;;17.45;6.43;;;25.50;99.90;;;;;;5072442;28;20028;-63
2021/06/16 08:19:49;;;;;;;22.55;6.28;;;25.60;99.90;;;;;;5083443;28;20116;-62
2021/06/16 08:22:15;;;;;;;15.10;6.10;;;25.50;99.90;;;;;;5081360;28;20539;-62
2021/06/16 08:24:41;;;;;;;17.10;6.40;;;25.30;99.90;;;;;;5074738;28;20547;-61
2021/06/16 08:27:09;;;;;;;16.02;6.55;;;25.50;99.90;;;;;;5080462;28;20359;-62
2021/06/16 08:29:35;;;;;;;15.27;6.75;;;25.30;99.90;;;;;;5084043;28;20072;-62
2021/06/16 08:32:01;;;;;;;18.58;6.57;;;25.40;99.90;;;;;;5075176;28;20377;-62
2021/06/16 08:34:27;;;;;;;18.58;6.57;;;25.50;99.90;;;;;;5078253;28;20107;-62
2021/06/16 08:36:53;;;;;;;18.67;5.90;;;26.20;99.90;;;;;;5089844;28;20043;-62
2021/06/16 08:39:20;;;;;;;18.83;6.68;;;26.30;99.90;;;;;;5072759;28;20527;-62
2021/06/16 08:41:46;;;;;;;15.32;6.40;;;26.40;99.90;;;;;;5086555;28;20028;-62
2021/06/16 08:44:14;;;;;;;15.48;6.40;;;26.40;99.90;;;;;;5090111;28;20445;-63
2021/06/16 08:46:40;;;;;;;15.82;6.15;;;26.20;99.90;;;;;;5090613;28;20035;-62
2021/06/16 08:49:07;;;;;;;15.70;6.68;;;26.30;99.90;;;;;;5083416;28;20028;-61
2021/06/16 08:51:36;;;;;;;19.60;6.72;;;26.40;99.90;;;;;;5081869;28;20469;-62
2021/06/16 08:54:02;;;;;;;19.90;7.15;;;26.50;99.90;;;;;;5082673;28;20036;-61
2021/06/16 08:56:28;;;;;;;15.57;7.45;;;26.60;99.90;;;;;;5080123;28;20035;-62
2021/06/16 08:58:54;;;;;;;17.40;6.00;;;26.90;99.90;;;;;;5086548;28;20021;-61
2021/06/16 09:01:21;;;;;;;15.55;6.07;;;26.80;99.90;;;;;;5080053;28;20497;-61
2021/06/16 09:03:47;;;;;;;14.20;5.78;;;27.00;99.90;;;;;;5076302;28;20028;-62
2021/06/16 09:06:16;;;;;;;22.25;7.47;;;27.10;99.90;;;;;;5089860;28;20040;-62
2021/06/16 09:08:56;;;;;;;17.02;6.60;;;27.10;99.90;;;;;;5090927;28;20109;-62
2021/06/16 09:11:24;;;;;;;15.00;6.63;;;27.10;99.90;;;;;;5066170;28;20028;-62
2021/06/16 09:13:50;;;;;;;14.32;6.32;;;27.00;99.90;;;;;;5076384;28;20073;-62
2021/06/16 09:16:29;;;;;;;14.50;5.50;;;27.10;99.90;;;;;;5089672;28;20024;-63
2021/06/16 09:18:56;;;;;;;13.77;5.40;;;27.10;99.90;;;;;;5084823;28;20152;-62
2021/06/16 09:21:37;;;;;;;17.75;5.88;;;27.40;99.90;;;;;;5077894;28;20100;-63
2021/06/16 09:24:07;;;;;;;11.93;5.53;;;27.50;99.90;;;;;;5075644;28;20466;-63
2021/06/16 09:26:37;;;;;;;10.85;5.40;;;27.50;99.90;;;;;;5078547;28;20038;-62
2021/06/16 09:29:05;;;;;;;16.88;5.20;;;27.20;99.90;;;;;;5093664;28;20063;-63
2021/06/16 09:31:42;;;;;;;14.25;5.13;;;27.20;99.90;;;;;;5094198;28;20020;-62
2021/06/16 09:34:10;;;;;;;12.45;5.57;;;27.20;99.90;;;;;;5084576;28;20020;-63
2021/06/16 09:36:54;;;;;;;14.63;5.32;;;27.10;99.90;;;;;;5088197;28;20070;-63
2021/06/16 09:39:25;;;;;;;19.33;6.55;;;27.10;99.90;;;;;;5083429;28;20039;-63
2021/06/16 09:42:13;;;;;;;13.30;5.15;;;27.20;99.90;;;;;;5079656;28;20032;-63
2021/06/16 09:44:46;;;;;;;11.73;4.82;;;27.40;99.90;;;;;;5083053;28;20123;-62
2021/06/16 09:47:20;;;;;;;33.83;5.85;;;27.60;99.90;;;;;;5093105;28;20058;-63
2021/06/16 09:49:54;;;;;;;12.27;5.18;;;27.70;99.90;;;;;;5080769;28;20055;-62
2021/06/16 09:52:26;;;;;;;8.70;4.03;;;27.90;99.90;;;;;;5092921;28;20478;-62
2021/06/16 09:54:51;;;;;;;14.88;5.03;;;27.90;99.90;;;;;;5091408;28;20081;-62
2021/06/16 09:57:17;;;;;;;10.43;3.88;;;28.20;99.90;;;;;;5089416;28;20040;-63
2021/06/16 09:59:45;;;;;;;10.80;4.55;;;28.10;99.90;;;;;;5085111;28;20035;-62
2021/06/16 10:02:23;;;;;;;9.43;3.92;;;28.30;99.90;;;;;;5093211;28;20692;-63
2021/06/16 10:04:56;;;;;;;10.35;3.88;;;28.40;99.90;;;;;;5093238;28;20482;-62
2021/06/16 10:07:29;;;;;;;9.90;4.47;;;28.60;99.90;;;;;;5093551;28;20386;-63
2021/06/16 10:10:05;;;;;;;13.23;4.43;;;28.60;99.90;;;;;;5093228;28;20020;-63
2021/06/16 10:12:39;;;;;;;9.63;4.63;;;28.40;99.90;;;;;;5093225;28;20706;-63
2021/06/16 10:15:23;;;;;;;14.27;4.22;;;28.40;99.90;;;;;;5087702;28;20024;-63
2021/06/16 10:17:50;;;;;;;9.20;3.90;;;28.30;99.90;;;;;;5075327;28;20024;-62
2021/06/16 10:20:17;;;;;;;22.30;4.93;;;28.20;99.90;;;;;;5085493;28;20058;-62
2021/06/16 10:22:43;;;;;;;8.68;4.05;;;28.60;99.90;;;;;;5072393;28;20561;-62
2021/06/16 10:25:10;;;;;;;10.32;4.25;;;28.60;99.90;;;;;;5082385;28;20036;-62
2021/06/16 10:28:06;;;;;;;8.07;4.32;;;28.80;99.90;;;;;;5078156;28;20039;-63
2021/06/16 10:30:40;;;;;;;12.65;4.00;;;28.80;99.90;;;;;;5057888;28;20410;-63
2021/06/16 10:33:26;;;;;;;10.37;3.73;;;28.70;99.00;;;;;;5091920;28;20389;-63
2021/06/16 10:36:12;;;;;;;10.60;3.88;;;28.90;98.00;;;;;;5082940;28;20365;-63
2021/06/16 10:39:03;;;;;;;10.55;4.30;;;28.90;98.40;;;;;;5075519;28;20047;-62
2021/06/16 10:41:40;;;;;;;11.98;4.00;;;28.70;98.20;;;;;;5085064;28;20105;-62
2021/06/16 10:44:11;;;;;;;8.45;4.65;;;28.80;98.60;;;;;;5063065;28;20111;-62
2021/06/16 10:46:55;;;;;;;8.52;4.22;;;28.60;98.30;;;;;;5085970;28;20085;-61
2021/06/16 10:49:50;;;;;;;10.13;4.43;;;28.60;98.60;;;;;;5093001;28;20354;-62
2021/06/16 10:52:22;;;;;;;9.43;4.90;;;28.70;98.60;;;;;;5092641;28;20330;-62
2021/06/16 10:55:04;;;;;;;13.68;5.20;;;28.80;99.00;;;;;;5086291;28;20110;-62
2021/06/16 10:57:33;;;;;;;10.07;4.32;;;28.90;98.50;;;;;;5092605;28;20032;-62
2021/06/16 11:00:00;;;;;;;9.82;4.72;;;29.00;98.30;;;;;;5076051;28;20034;-63
2021/06/16 11:02:31;;;;;;;7.10;3.80;;;29.00;98.20;;;;;;5072199;28;20033;-63
2021/06/16 11:05:33;;;;;;;14.13;3.97;;;29.10;97.90;;;;;;5071196;28;20322;-62
2021/06/16 11:08:00;;;;;;;15.45;5.80;;;29.00;97.60;;;;;;5050961;28;20044;-62
2021/06/16 11:10:55;;;;;;;9.93;4.63;;;29.10;98.30;;;;;;5073886;28;20032;-63
2021/06/16 11:13:51;;;;;;;9.30;4.22;;;28.80;98.10;;;;;;5072130;28;20039;-62
2021/06/16 11:16:42;;;;;;;11.27;4.05;;;29.00;98.40;;;;;;5046588;28;20048;-63
2021/06/16 11:19:27;;;;;;;10.50;3.72;;;28.90;97.70;;;;;;5083878;28;20125;-63
2021/06/16 11:21:55;;;;;;;9.82;3.83;;;28.80;97.90;;;;;;5064376;28;20046;-63
2021/06/16 11:24:22;;;;;;;12.07;3.78;;;28.90;97.60;;;;;;5081340;28;20070;-62
2021/06/16 11:26:50;;;;;;;19.00;4.88;;;28.70;97.70;;;;;;5089651;28;20029;-63
2021/06/16 11:30:14;;;;;;;7.55;2.83;;;29.10;96.60;;;;;;5079413;28;20076;-63
2021/06/16 11:32:39;;;;;;;9.30;2.92;;;29.30;94.90;;;;;;5021023;28;20096;-63
2021/06/16 11:35:05;;;;;;;4.38;2.85;;;29.30;94.20;;;;;;5053423;28;20039;-62
2021/06/16 11:37:57;;;;;;;7.15;3.03;;;29.30;94.70;;;;;;5092105;28;20032;-62
2021/06/16 11:40:24;;;;;;;9.23;3.28;;;29.10;95.00;;;;;;5089226;28;20039;-62
2021/06/16 11:42:49;;;;;;;7.20;3.05;;;29.10;95.40;;;;;;5091444;28;20038;-61
2021/06/16 11:45:15;;;;;;;6.07;2.78;;;29.20;94.80;;;;;;5071892;28;20385;-61
2021/06/16 11:47:41;;;;;;;6.45;4.20;;;29.00;94.60;;;;;;5080469;28;20355;-61
2021/06/16 11:50:09;;;;;;;5.72;2.95;;;29.10;93.90;;;;;;5091080;28;20060;-61
2021/06/16 11:52:35;;;;;;;4.95;2.80;;;28.90;94.00;;;;;;5092000;28;20050;-62
2021/06/16 11:55:00;;;;;;;7.10;2.72;;;28.70;93.30;;;;;;5075815;28;20025;-61
2021/06/16 11:57:27;;;;;;;15.85;4.72;;;28.90;94.10;;;;;;5090859;28;20043;-62
2021/06/16 11:59:53;;;;;;;6.63;2.53;;;29.10;94.40;;;;;;5090262;28;20036;-61
2021/06/16 12:02:20;;;;;;;11.57;4.22;;;29.30;93.60;;;;;;5090512;28;20035;-62
2021/06/16 12:04:47;;;;;;;9.15;2.85;;;29.10;94.00;;;;;;5087200;28;20483;-62
2021/06/16 12:07:18;;;;;;;7.60;2.47;;;29.10;94.40;;;;;;5072492;28;20431;-62
2021/06/16 12:09:45;;;;;;;10.73;3.13;;;29.30;94.30;;;;;;5071160;28;20036;-62
2021/06/16 12:12:11;;;;;;;9.82;2.60;;;29.50;94.70;;;;;;5084976;28;20442;-62
2021/06/16 12:14:37;;;;;;;6.80;2.50;;;29.50;94.10;;;;;;5091324;28;20107;-62
2021/06/16 12:17:04;;;;;;;7.70;2.85;;;29.60;93.40;;;;;;5090652;28;20036;-62
2021/06/16 12:19:35;;;;;;;3.85;2.47;;;29.60;93.10;;;;;;5086319;28;20239;-62
2021/06/16 12:22:05;;;;;;;8.77;2.38;;;29.60;93.00;;;;;;5090231;28;20032;-62
2021/06/16 12:24:43;;;;;;;6.72;2.60;;;29.40;94.10;;;;;;5076646;28;20032;-62
2021/06/16 12:27:15;;;;;;;7.05;2.50;;;29.10;94.10;;;;;;5069469;28;20383;-63
2021/06/16 12:29:45;;;;;;;7.93;2.88;;;29.00;94.20;;;;;;5085702;28;20040;-62
2021/06/16 12:32:12;;;;;;;8.70;2.75;;;29.20;94.40;;;;;;5089002;28;20020;-62
2021/06/16 12:37:08;;;;;;;3.47;2.30;;;29.20;94.10;;;;;;5070683;28;20588;-63
2021/06/16 12:39:34;;;;;;;11.57;2.70;;;29.10;94.70;;;;;;5082275;28;20466;-63
2021/06/16 12:42:06;;;;;;;7.45;2.70;;;29.20;94.90;;;;;;5074312;28;20024;-63
2021/06/16 12:44:42;;;;;;;13.20;4.75;;;29.20;95.20;;;;;;5079491;28;20493;-63
2021/06/16 12:47:11;;;;;;;9.45;2.85;;;29.20;95.30;;;;;;5088462;28;20028;-63
2021/06/16 12:49:42;;;;;;;4.70;2.15;;;29.40;95.50;;;;;;5090734;28;20081;-63
2021/06/16 12:52:10;;;;;;;6.32;2.75;;;29.30;95.70;;;;;;5090026;28;20025;-63